createdAt,value
2022-10-24T00:12:31.501Z,7.30
2022-10-24T00:27:34.805Z,7.30
2022-10-24T00:42:36.069Z,7.80
2022-10-24T00:57:37.423Z,7.50
2022-10-24T01:12:38.789Z,7.60
2022-10-24T01:27:40.655Z,9.20
2022-10-24T01:42:41.998Z,10.20
2022-10-24T01:57:43.367Z,10.10
2022-10-24T02:12:43.239Z,10.40
2022-10-24T02:27:45.634Z,9.60
2022-10-24T02:42:47.748Z,10.70
2022-10-24T02:57:49.635Z,28.70
2022-10-24T03:12:50.490Z,28.80
2022-10-24T03:27:52.373Z,11.90
2022-10-24T03:42:53.801Z,11.20
2022-10-24T03:57:56.659Z,10.60
2022-10-24T04:12:57.050Z,10.80
2022-10-24T04:27:58.441Z,11.50
2022-10-24T04:42:59.767Z,11.30
2022-10-24T04:58:01.235Z,11.20
2022-10-24T05:13:01.768Z,11.10
2022-10-24T05:28:03.175Z,8.60
2022-10-24T05:43:05.048Z,9.70
2022-10-24T05:58:05.819Z,10.10
2022-10-24T06:13:06.732Z,10.30
2022-10-24T06:43:09.260Z,10.80
2022-10-24T06:58:10.187Z,10.30
2022-10-24T07:13:11.506Z,9.40
2022-10-24T07:28:12.139Z,9.50
2022-10-24T07:43:12.758Z,8.30
2022-10-24T07:58:14.641Z,7.30
2022-10-24T08:16:11.068Z,7.50
2022-10-24T08:31:13.674Z,5.70
2022-10-24T08:46:13.821Z,5.50
2022-10-24T09:01:14.070Z,4.90
2022-10-24T09:16:14.032Z,3.80
2022-10-24T09:31:14.150Z,3.30
2022-10-24T09:46:14.211Z,3.70
2022-10-24T10:01:14.417Z,3.10
2022-10-24T10:16:16.031Z,2.80
2022-10-24T10:31:16.545Z,3.20
2022-10-24T10:46:17.617Z,3.10
2022-10-24T11:01:18.165Z,2.50
2022-10-24T11:16:18.104Z,2.70
2022-10-24T11:31:18.712Z,2.80
2022-10-24T11:46:18.287Z,3.00
2022-10-24T12:01:18.896Z,3.00
2022-10-24T12:16:19.965Z,2.50
2022-10-24T12:31:22.369Z,2.60
2022-10-24T12:46:25.184Z,2.40
2022-10-24T13:01:25.395Z,2.90
2022-10-24T13:16:25.400Z,2.40
2022-10-24T13:31:25.465Z,1.90
2022-10-24T13:46:25.587Z,2.50
2022-10-24T14:01:26.262Z,2.90
2022-10-24T14:16:26.272Z,2.20
2022-10-24T14:31:26.379Z,1.70
2022-10-24T14:46:26.506Z,2.20
2022-10-24T15:01:26.619Z,2.30
2022-10-24T15:16:26.693Z,2.20
2022-10-24T15:31:26.766Z,2.40
2022-10-24T15:46:27.377Z,4.20
2022-10-24T16:01:27.127Z,4.10
2022-10-24T16:16:27.170Z,4.80
2022-10-24T16:31:27.149Z,3.40
2022-10-24T16:46:27.772Z,3.10
2022-10-24T17:01:28.077Z,3.40
2022-10-24T17:16:28.042Z,3.20
2022-10-24T17:31:28.575Z,3.70
2022-10-24T17:46:28.681Z,2.70
2022-10-24T18:01:28.906Z,3.10
2022-10-24T18:16:30.705Z,2.30
2022-10-24T18:31:32.809Z,2.20
2022-10-24T18:46:32.908Z,2.20
2022-10-24T19:01:33.123Z,2.50
2022-10-24T19:16:33.593Z,2.10
2022-10-24T19:31:33.213Z,2.40
2022-10-24T19:46:34.319Z,2.20
2022-10-24T20:01:34.594Z,2.40
2022-10-24T20:16:36.004Z,2.80
2022-10-24T20:31:36.122Z,2.30
2022-10-24T20:46:36.201Z,2.50
2022-10-24T21:01:36.889Z,2.70
2022-10-24T21:16:36.942Z,3.10
2022-10-24T21:31:37.551Z,3.10
2022-10-24T21:46:38.117Z,3.10
2022-10-24T22:01:38.992Z,3.20
2022-10-24T22:16:38.845Z,3.20
2022-10-24T22:31:39.143Z,3.60
2022-10-24T22:46:39.536Z,3.10
2022-10-24T23:01:40.445Z,2.80
2022-10-24T23:16:40.940Z,3.10
2022-10-24T23:31:40.866Z,3.10
2022-10-24T23:46:41.505Z,3.50
